Latest Weather Observations for Grove

IDT60901

Issued at 8:45 pm EST Tuesday 30 September 2014 (issued every 10 minutes, with the page automatically refreshed every 10 minutes)

About weather observations | Map of Hobart area stations | Latest observations for Hobart area | Other Formats
Station Details ID: 094220 Name: GROVE (RESEARCH STATION) Lat: -42.99 Lon: 147.07 Height: 65.0 m
Data from the previous 72 hours. | See also: Recent months at Grove
Date/Time
EST
Tmp

°C
App
Tmp
°C
Dew
Point
°C
Rel
Hum
%
Delta-T

°C
Wind Press
QNH
hPa
Press
MSL
hPa
Rain
since
9 am
mm
Dir
 
Spd
km/h
Gust
km/h
Spd
kts
Gust
kts
30/08:30pm 7.3 2.6 1.1 65 2.5 SW 15 22 8 12 - - 2.8
30/08:00pm 7.0 2.0 1.3 67 2.3 WSW 17 30 9 16 - - 2.8
30/07:30pm 6.5 3.3 2.9 78 1.5 WSW 9 13 5 7 - - 2.8
30/07:00pm 6.5 3.4 3.4 80 1.3 SW 9 15 5 8 - - 2.8
30/06:30pm 7.0 1.4 3.5 78 1.5 SW 22 41 12 22 - - 2.8
30/06:00pm 8.3 4.7 4.9 79 1.5 WSW 13 19 7 10 - - 2.8
30/05:30pm 8.7 5.4 6.5 86 1.0 SW 13 19 7 10 - - 2.4
30/05:00pm 10.2 6.7 5.6 73 2.1 SW 13 20 7 11 - - 2.2
30/04:30pm 10.6 7.2 5.9 73 2.2 SSW 13 20 7 11 - - 2.2
30/04:00pm 10.5 6.9 6.7 77 1.8 SSW 15 22 8 12 - - 2.2
30/03:30pm 11.0 7.8 7.0 76 1.9 SSW 13 19 7 10 - - 2.2
30/03:00pm 10.2 7.8 6.8 79 1.6 SSW 9 13 5 7 - - 2.2
30/02:30pm 9.8 8.0 7.3 84 1.2 WSW 6 9 3 5 - - 2.2
30/02:00pm 9.8 6.3 7.1 83 1.3 S 15 22 8 12 - - 2.0
30/01:30pm 10.0 6.3 7.9 87 1.0 SSW 17 30 9 16 - - 1.8
30/01:03pm 11.2 5.6 8.6 84 1.3 SW 28 46 15 25 - - 0.8
30/01:00pm 12.0 7.6 9.0 82 1.5 SSW 22 46 12 25 - - 0.2
30/12:30pm 14.9 12.3 9.5 70 2.8 SSW 13 22 7 12 - - 0.0
30/12:00pm 15.4 12.3 7.3 58 4.0 WNW 13 17 7 9 - - 0.0
30/11:30am 15.4 13.5 9.0 65 3.3 W 9 15 5 8 - - 0.0
30/11:00am 15.9 11.8 8.0 59 4.0 W 19 28 10 15 - - 0.0
30/10:30am 17.5 12.1 6.4 48 5.5 WNW 24 44 13 24 - - 0.0
30/10:18am 17.1 10.8 5.5 46 5.6 NW 28 48 15 26 - - 0.0
30/10:00am 17.1 12.3 4.7 44 5.9 NNW 19 37 10 20 - - 0.0
30/09:30am 17.7 13.7 5.0 43 6.1 WNW 15 26 8 14 - - 0.0
30/09:00am 16.8 10.5 3.7 41 6.1 NW 26 41 14 22 - - 0.0
30/08:51am 16.6 9.5 3.4 41 6.1 NW 30 48 16 26 - - 0.0
30/08:30am 16.0 10.8 3.7 44 5.7 NNW 20 39 11 21 - - 0.0
30/08:00am 14.7 9.2 3.8 48 5.0 N 22 33 12 18 - - 0.0
30/07:30am 14.2 8.6 3.4 48 4.9 N 22 35 12 19 - - 0.0
30/07:00am 13.8 8.2 3.7 50 4.6 NNW 22 37 12 20 - - 0.0
30/06:35am 13.7 6.9 3.2 49 4.7 NNW 28 46 15 25 - - 0.0
30/06:30am 13.5 7.2 3.5 51 4.5 NNW 26 44 14 24 - - 0.0
30/06:02am 13.5 6.7 3.2 49 4.6 N 28 46 15 25 - - 0.0
30/06:00am 13.5 7.5 3.5 51 4.5 N 24 46 13 25 - - 0.0
30/05:30am 13.8 7.8 3.4 49 4.7 NNW 24 41 13 22 - - 0.0
30/05:00am 14.0 8.3 2.8 47 5.0 NNW 22 37 12 20 - - 0.0
30/04:30am 13.7 8.4 2.9 48 4.8 NNW 20 39 11 21 - - 0.0
30/04:00am 12.1 8.6 3.3 55 3.9 W 11 17 6 9 - - 0.0
30/03:30am 12.4 8.4 2.9 52 4.2 W 13 19 7 10 - - 0.0
30/03:00am 13.8 8.6 2.2 45 5.1 NNW 19 33 10 18 - - 0.0
30/02:30am 13.3 9.6 2.4 47 4.8 WNW 11 20 6 11 - - 0.0
30/02:00am 14.2 8.9 1.6 42 5.5 NW 19 37 10 20 - - 0.0
30/01:30am 14.2 8.1 2.5 45 5.2 NNW 24 39 13 21 - - 0.0
30/01:00am 13.7 9.8 3.2 49 4.7 NW 13 22 7 12 - - 0.0
30/12:30am 13.7 9.3 2.9 48 4.8 WNW 15 26 8 14 - - 0.0
30/12:00am 14.0 8.6 2.5 46 5.1 WNW 20 39 11 21 - - 0.0
 
Date/Time
EST
Tmp

°C
App
Tmp
°C
Dew
Point
°C
Rel
Hum
%
Delta-T

°C
Wind Press
QNH
hPa
Press
MSL
hPa
Rain
since
9 am
mm
Dir
 
Spd
km/h
Gust
km/h
Spd
kts
Gust
kts
29/11:30pm 13.9 8.7 2.3 45 5.1 WNW 19 30 10 16 - - 0.0
29/11:00pm 14.0 8.2 2.5 46 5.1 NW 22 50 12 27 - - 0.0
29/10:30pm 13.8 7.7 2.5 46 5.0 NW 24 48 13 26 - - 0.0
29/10:05pm 13.9 6.9 2.0 44 5.2 WNW 28 48 15 26 - - 0.0
29/10:00pm 13.8 8.0 2.2 45 5.1 WNW 22 46 12 25 - - 0.0
29/09:30pm 13.7 8.2 2.0 45 5.1 WNW 20 43 11 23 - - 0.0
29/09:00pm 13.2 8.6 1.6 45 5.0 NW 15 28 8 15 - - 0.0
29/08:30pm 13.1 9.2 1.2 44 5.1 N 11 20 6 11 - - 0.0
29/08:00pm 13.4 8.3 0.6 41 5.4 NW 17 32 9 17 - - 0.0
29/07:30pm 13.7 9.0 0.8 41 5.5 NNW 15 26 8 14 - - 0.0
29/07:00pm 14.0 8.5 0.9 41 5.6 WNW 19 32 10 17 - - 0.0
29/06:30pm 14.4 10.1 1.2 40 5.7 NW 13 33 7 18 - - 0.0
29/06:00pm 14.9 10.7 1.4 40 5.9 WSW 13 33 7 18 - - 0.0
29/05:30pm 15.1 12.0 3.5 46 5.3 W 9 17 5 9 - - 0.0
29/05:00pm 16.8 12.6 1.5 35 6.8 NW 13 26 7 14 - - 0.0
29/04:30pm 17.1 11.4 0.3 32 7.3 NNW 20 50 11 27 - - 0.0
29/04:00pm 17.5 12.7 0.3 31 7.5 NW 15 41 8 22 - - 0.0
29/03:31pm 17.4 10.0 -1.0 28 7.8 NW 28 54 15 29 - - 0.0
29/03:30pm 17.5 10.5 -0.4 29 7.7 NW 26 37 14 20 - - 0.0
29/03:00pm 17.2 10.5 -1.0 29 7.7 WNW 24 41 13 22 - - 0.0
29/02:30pm 17.4 11.8 0.1 31 7.5 NW 19 39 10 21 - - 0.0
29/02:00pm 17.1 11.3 -0.4 30 7.5 NNW 20 39 11 21 - - 0.0
29/01:30pm 16.5 9.0 -1.2 30 7.4 WNW 28 44 15 24 - - 0.0
29/01:10pm 16.2 8.0 -0.9 31 7.2 WNW 32 59 17 32 - - 0.0
29/01:00pm 16.3 8.6 -0.4 32 7.1 NW 30 44 16 24 - - 0.0
29/12:33pm 16.0 8.3 -0.2 33 6.9 W 30 48 16 26 - - 0.0
29/12:30pm 16.1 8.0 0.0 33 6.9 W 32 48 17 26 - - 0.0
29/12:05pm 15.6 8.4 0.5 36 6.5 W 28 50 15 27 - - 0.0
29/12:00pm 15.4 8.9 0.5 36 6.4 W 24 35 13 19 - - 0.0
29/11:30am 14.7 6.4 -1.4 33 6.6 WNW 32 50 17 27 - - 0.0
29/11:04am 14.7 7.6 1.4 40 5.8 WNW 28 48 15 26 - - 0.0
29/11:00am 14.7 8.0 1.4 40 5.8 WNW 26 46 14 25 - - 0.0
29/10:30am 14.9 9.6 2.0 41 5.7 WNW 19 41 10 22 - - 0.0
29/10:00am 14.0 6.7 0.3 39 5.8 WNW 28 46 15 25 - - 0.0
29/09:34am 13.2 5.7 -1.4 36 5.9 NW 28 52 15 28 - - 0.0
29/09:30am 13.2 6.2 -0.4 39 5.6 WNW 26 52 14 28 - - 0.0
29/09:00am 12.4 5.2 0.7 44 4.9 WNW 28 50 15 27 - - 3.2
29/08:30am 11.7 4.8 2.5 53 4.0 WNW 28 50 15 27 - - 3.2
29/08:16am 12.0 5.1 2.3 51 4.2 WNW 28 46 15 25 - - 3.2
29/08:00am 11.9 6.5 2.5 52 4.1 WNW 20 33 11 18 - - 3.2
29/07:30am 11.4 6.9 2.1 53 4.0 W 15 28 8 15 - - 3.2
29/07:00am 10.7 3.5 0.8 50 4.1 W 28 48 15 26 - - 3.2
29/06:30am 10.5 5.1 2.3 57 3.5 W 20 32 11 17 - - 3.2
29/06:00am 10.5 3.5 1.7 54 3.7 W 28 44 15 24 - - 3.2
29/05:30am 9.9 4.8 2.9 62 3.0 W 19 35 10 19 - - 3.2
29/05:00am 10.0 4.9 3.1 62 3.0 WNW 19 35 10 19 - - 3.2
29/04:30am 9.1 4.6 4.4 72 2.1 W 17 26 9 14 - - 3.2
29/04:00am 9.8 5.2 5.4 74 2.0 W 19 33 10 18 - - 3.2
29/03:30am 10.1 5.6 6.0 76 1.9 W 19 32 10 17 - - 2.6
29/03:00am 11.9 8.2 2.5 52 4.1 W 11 26 6 14 - - 0.0
29/02:30am 12.3 8.5 1.8 48 4.5 N 11 19 6 10 - - 0.0
29/02:00am 12.8 8.9 1.3 45 4.9 WNW 11 15 6 8 - - 0.0
29/01:30am 13.1 9.8 2.4 48 4.7 W 9 17 5 9 - - 0.0
29/01:00am 11.8 9.1 3.7 57 3.6 NW 7 20 4 11 - - 0.0
29/12:30am 13.3 8.9 2.7 48 4.7 W 15 30 8 16 - - 0.0
29/12:00am 11.0 8.9 6.8 75 2.0 WSW 7 11 4 6 - - 0.0
 
Date/Time
EST
Tmp

°C
App
Tmp
°C
Dew
Point
°C
Rel
Hum
%
Delta-T

°C
Wind Press
QNH
hPa
Press
MSL
hPa
Rain
since
9 am
mm
Dir
 
Spd
km/h
Gust
km/h
Spd
kts
Gust
kts
28/11:30pm 12.1 9.5 7.8 75 2.1 SSW 11 19 6 10 - - 0.0
28/11:00pm 12.6 10.2 7.0 68 2.7 SW 9 17 5 9 - - 0.0
28/10:30pm 14.0 11.5 8.2 68 2.9 SSW 11 20 6 11 - - 0.0
28/10:00pm 14.4 12.3 9.6 73 2.5 SW 11 20 6 11 - - 0.0
28/09:30pm 14.6 11.5 10.4 76 2.2 S 17 24 9 13 - - 0.0
28/09:00pm 15.8 14.2 10.3 70 2.9 W 9 15 5 8 - - 0.0
28/08:30pm 16.2 12.7 10.1 67 3.2 SW 19 28 10 15 - - 0.0
28/08:00pm 19.1 15.1 6.8 44 6.2 NW 17 30 9 16 - - 0.0
28/07:30pm 19.3 16.2 7.1 45 6.2 NNW 13 37 7 20 - - 0.0
28/07:00pm 19.7 15.0 6.1 41 6.8 NW 20 39 11 21 - - 0.0
28/06:30pm 19.4 14.8 6.4 42 6.5 NNW 20 37 11 20 - - 0.0
28/06:00pm 19.2 14.3 6.9 44 6.2 WSW 22 32 12 17 - - 0.0
28/05:30pm 21.9 14.4 3.4 29 8.9 NW 32 59 17 32 - - 0.0
28/05:18pm 21.9 15.2 3.4 29 8.9 NW 28 46 15 25 - - 0.0
28/05:00pm 21.6 17.9 4.4 32 8.4 NNW 13 26 7 14 - - 0.0
28/04:38pm 21.9 15.2 3.7 30 8.8 NNW 28 54 15 29 - - 0.0
28/04:30pm 21.7 16.9 4.6 32 8.4 NNW 19 33 10 18 - - 0.0
28/04:01pm 21.9 15.3 4.3 31 8.6 N 28 59 15 32 - - 0.0
28/04:00pm 21.9 15.8 4.6 32 8.5 N 26 59 14 32 - - 0.0
28/03:30pm 22.5 15.9 4.1 30 9.0 N 28 52 15 28 - - 0.0
28/03:01pm 21.9 14.9 4.0 31 8.7 NNW 30 63 16 34 - - 0.0
28/03:00pm 22.1 14.5 3.1 28 9.1 WNW 32 63 17 34 - - 0.0
28/02:46pm 23.1 15.3 1.5 24 10.1 WNW 32 74 17 40 - - 0.0
28/02:33pm 23.4 16.5 2.8 26 9.9 NNW 28 46 15 25 - - 0.0
28/02:30pm 23.8 16.3 1.4 23 10.5 NNW 30 43 16 23 - - 0.0
28/02:00pm 24.5 19.6 2.1 23 10.7 NW 17 67 9 36 - - 0.0
28/01:57pm 24.7 13.6 -0.1 19 11.4 N 48 67 26 36 - - 0.0
28/01:30pm 24.7 16.4 -0.1 19 11.4 NW 33 69 18 37 - - 0.0
28/01:00pm 25.3 15.8 -0.4 18 11.8 NW 39 63 21 34 - - 0.0
28/12:39pm 26.1 17.3 -1.5 16 12.5 NNW 35 87 19 47 - - 0.0
28/12:34pm 26.2 18.7 -1.7 16 12.6 NNW 28 65 15 35 - - 0.0
28/12:30pm 26.7 20.2 0.3 18 12.4 NNW 24 46 13 25 - - 0.0
28/12:00pm 27.0 20.4 -0.6 16 12.8 NNW 24 82 13 44 - - 0.0
28/11:56am 26.9 19.3 -1.8 15 13.0 NNW 28 82 15 44 - - 0.0
28/11:40am 26.0 18.8 0.4 18 12.0 NNW 28 48 15 26 - - 0.0
28/11:30am 24.7 19.5 3.5 25 10.4 N 20 35 11 19 - - 0.0
28/11:00am 24.1 18.7 6.2 31 9.2 N 24 48 13 26 - - 0.0
28/10:30am 23.6 18.2 6.5 33 8.8 N 24 52 13 28 - - 0.0
28/10:00am 22.8 18.7 7.7 38 7.9 N 19 32 10 17 - - 0.0
28/09:30am 21.5 17.1 7.6 40 7.2 N 20 41 11 22 - - 0.0
28/09:00am 20.3 17.2 7.2 42 6.7 N 13 37 7 20 - - 0.0
28/08:39am 20.3 14.2 6.4 40 7.0 N 28 46 15 25 - - 0.0
28/08:30am 20.2 15.6 6.3 40 7.0 N 20 37 11 20 - - 0.0
28/08:00am 19.0 13.3 6.9 45 6.1 N 26 41 14 22 - - 0.0
28/07:30am 19.1 13.0 6.5 43 6.3 N 28 54 15 29 - - 0.0
28/07:00am 18.5 11.7 7.0 47 5.8 N 32 57 17 31 - - 0.0
28/06:36am 17.9 11.0 7.2 49 5.4 N 33 54 18 29 - - 0.0
28/06:30am 17.9 11.2 7.2 49 5.4 N 32 46 17 25 - - 0.0
28/06:00am 17.8 10.9 7.3 50 5.3 N 33 50 18 27 - - 0.0
28/05:41am 17.7 11.8 7.4 51 5.2 N 28 46 15 25 - - 0.0
28/05:30am 17.6 13.2 7.5 51 5.1 N 20 43 11 23 - - 0.0
28/05:00am 16.7 13.0 7.8 55 4.5 ENE 17 44 9 24 - - 0.0
28/04:51am 17.3 11.4 7.4 52 5.0 E 28 44 15 24 - - 0.0
28/04:30am 16.5 13.5 7.5 55 4.5 S 13 20 7 11 - - 0.0
28/04:00am 16.8 14.1 7.2 53 4.8 N 11 26 6 14 - - 0.0
28/03:30am 16.7 14.0 7.3 54 4.7 WNW 11 19 6 10 - - 0.0
28/03:00am 17.0 14.4 6.2 49 5.3 W 9 32 5 17 - - 0.0
28/02:30am 16.9 13.2 6.1 49 5.3 WSW 15 32 8 17 - - 0.0
28/02:00am 16.6 13.5 5.6 48 5.3 SW 11 22 6 12 - - 0.0
28/01:30am 16.5 12.3 5.8 49 5.2 WNW 17 41 9 22 - - 0.0
28/01:00am 15.9 11.7 5.7 50 4.9 WNW 17 37 9 20 - - 0.0
28/12:30am 15.6 12.6 5.8 52 4.7 NW 11 20 6 11 - - 0.0
28/12:00am 15.1 12.1 6.2 55 4.3 WSW 11 22 6 12 - - 0.0
 
Date/Time
EST
Tmp

°C
App
Tmp
°C
Dew
Point
°C
Rel
Hum
%
Delta-T

°C
Wind Press
QNH
hPa
Press
MSL
hPa
Rain
since
9 am
mm
Dir
 
Spd
km/h
Gust
km/h
Spd
kts
Gust
kts
27/11:30pm 15.3 12.0 6.5 55 4.3 WSW 13 22 7 12 - - 0.0
27/11:00pm 15.3 11.3 6.5 55 4.3 W 17 32 9 17 - - 0.0
27/10:30pm 15.1 12.3 7.0 58 4.0 NNW 11 24 6 13 - - 0.0
27/10:00pm 12.2 10.3 7.7 74 2.2 ESE 7 15 4 8 - - 0.0
27/09:30pm 11.1 9.4 8.2 82 1.4 NNE 7 13 4 7 - - 0.0
27/09:00pm 10.5 8.9 8.9 90 0.8 NE 7 9 4 5 - - 0.0

Latest Capital City Observations: Canberra | Sydney | Melbourne | Brisbane | Adelaide | Perth | Hobart | Darwin

Other Formats:

Comma delimited format used in spreadsheet applications
http://www.bom.gov.au/fwo/IDT60901/IDT60901.95977.axf

JavaScript Object Notation format (JSON) in row-major order
http://www.bom.gov.au/fwo/IDT60901/IDT60901.95977.json